Time;durP1;ratioP1;P1;durP2;ratioP2;P2;SDS_P1;SDS_P2;PMS_P1;PMS_P2;Temp;Humidity;BMP_temperature;BMP_pressure;BME280_temperature;BME280_humidity;BME280_pressure;Samples;Min_cycle;Max_cycle;Signal;HPM_P1;HPM_P2
2023/05/22 00:00:18;;;;;;;9.77;8.40;;;;;;;;;;5078126;28;20206;-65
2023/05/22 00:02:47;;;;;;;9.57;8.17;;;;;;;;;;5077489;28;20214;-66
2023/05/22 00:05:17;;;;;;;8.23;7.43;;;;;;;;;;5077976;28;20227;-65
2023/05/22 00:07:45;;;;;;;11.37;7.70;;;;;;;;;;5077600;28;20554;-66
2023/05/22 00:10:13;;;;;;;10.87;7.67;;;;;;;;;;5077908;28;20212;-66
2023/05/22 00:12:41;;;;;;;9.57;8.57;;;;;;;;;;5077570;28;20206;-66
2023/05/22 00:15:10;;;;;;;8.43;7.63;;;;;;;;;;5077921;28;20226;-65
2023/05/22 00:17:41;;;;;;;9.03;8.13;;;;;;;;;;5077558;28;20213;-64
2023/05/22 00:20:09;;;;;;;9.97;8.90;;;;;;;;;;5077865;28;20203;-66
2023/05/22 00:22:41;;;;;;;10.83;9.50;;;;;;;;;;5087095;28;20221;-66
2023/05/22 00:25:10;;;;;;;12.17;9.43;;;;;;;;;;5077570;28;20244;-66
2023/05/22 00:27:38;;;;;;;11.07;9.97;;;;;;;;;;5077742;28;20264;-65
2023/05/22 00:30:09;;;;;;;11.33;9.77;;;;;;;;;;5077506;28;20207;-66
2023/05/22 00:32:37;;;;;;;11.17;9.43;;;;;;;;;;5077687;28;20229;-66
2023/05/22 00:35:07;;;;;;;10.30;9.37;;;;;;;;;;5077603;28;20249;-66
2023/05/22 00:37:35;;;;;;;12.07;10.73;;;;;;;;;;5077011;28;20206;-66
2023/05/22 00:40:04;;;;;;;13.93;11.40;;;;;;;;;;5074179;28;20231;-65
2023/05/22 00:42:32;;;;;;;12.83;10.17;;;;;;;;;;5075331;28;20202;-64
2023/05/22 00:45:00;;;;;;;12.27;10.47;;;;;;;;;;5067470;28;20195;-64
2023/05/22 00:47:29;;;;;;;11.57;10.40;;;;;;;;;;5075578;28;20252;-65
2023/05/22 00:49:57;;;;;;;11.33;10.13;;;;;;;;;;5068707;28;20195;-65
2023/05/22 00:52:28;;;;;;;13.83;10.87;;;;;;;;;;5073494;28;20669;-65
2023/05/22 00:54:56;;;;;;;11.73;10.63;;;;;;;;;;5072879;28;20207;-64
2023/05/22 00:57:40;;;;;;;13.43;11.03;;;;;;;;;;5046889;28;20608;-64
2023/05/22 01:00:10;;;;;;;11.63;10.43;;;;;;;;;;5073838;28;20237;-66
2023/05/22 01:02:42;;;;;;;11.33;10.20;;;;;;;;;;5073264;28;20211;-65
2023/05/22 01:05:11;;;;;;;13.13;11.30;;;;;;;;;;5070058;28;20718;-64
2023/05/22 01:07:41;;;;;;;13.43;10.77;;;;;;;;;;5076848;28;20209;-65
2023/05/22 01:10:10;;;;;;;13.43;11.67;;;;;;;;;;5077191;28;20207;-66
2023/05/22 01:12:42;;;;;;;18.37;13.07;;;;;;;;;;5077339;28;20340;-65
2023/05/22 01:15:23;;;;;;;17.23;15.43;;;;;;;;;;5077544;28;20276;-65
2023/05/22 01:18:05;;;;;;;15.90;13.03;;;;;;;;;;5076647;28;20207;-64
2023/05/22 01:20:36;;;;;;;17.90;14.33;;;;;;;;;;5076407;28;20636;-64
2023/05/22 01:23:25;;;;;;;16.03;13.20;;;;;;;;;;5072969;28;20203;-66
2023/05/22 01:26:02;;;;;;;15.30;13.70;;;;;;;;;;5050573;28;20720;-64
2023/05/22 01:28:37;;;;;;;14.93;13.37;;;;;;;;;;5074676;28;20210;-66
2023/05/22 01:31:10;;;;;;;14.80;12.70;;;;;;;;;;5076440;28;20711;-65
2023/05/22 01:33:43;;;;;;;15.77;12.77;;;;;;;;;;5077862;28;20720;-65
2023/05/22 01:36:12;;;;;;;17.00;13.27;;;;;;;;;;5080139;28;20229;-65
2023/05/22 01:38:41;;;;;;;14.97;13.40;;;;;;;;;;5080339;28;20206;-65
2023/05/22 01:41:09;;;;;;;16.13;14.27;;;;;;;;;;5080277;28;20670;-65
2023/05/22 01:43:37;;;;;;;14.70;12.57;;;;;;;;;;5080486;28;20218;-66
2023/05/22 01:46:07;;;;;;;14.57;12.97;;;;;;;;;;5076590;28;20229;-65
2023/05/22 01:48:35;;;;;;;14.37;12.87;;;;;;;;;;5067363;28;20210;-66
2023/05/22 01:51:07;;;;;;;16.63;13.23;;;;;;;;;;5080513;28;20236;-66
2023/05/22 01:53:47;;;;;;;14.90;13.07;;;;;;;;;;5080181;28;20207;-65
2023/05/22 01:56:17;;;;;;;17.93;13.67;;;;;;;;;;5080051;28;20700;-66
2023/05/22 01:58:51;;;;;;;16.23;13.47;;;;;;;;;;5080170;28;20206;-66
2023/05/22 02:01:22;;;;;;;14.40;12.90;;;;;;;;;;5080505;28;20320;-66
2023/05/22 02:03:55;;;;;;;16.47;14.73;;;;;;;;;;5080557;28;20201;-65
2023/05/22 02:06:25;;;;;;;18.13;15.10;;;;;;;;;;5080246;28;20237;-65
2023/05/22 02:08:54;;;;;;;16.20;13.33;;;;;;;;;;5080007;28;20206;-64
2023/05/22 02:11:25;;;;;;;17.93;12.73;;;;;;;;;;5079794;28;20210;-64
2023/05/22 02:13:53;;;;;;;15.83;13.27;;;;;;;;;;5079868;28;20210;-65
2023/05/22 02:16:23;;;;;;;17.57;14.60;;;;;;;;;;5079826;28;20226;-64
2023/05/22 02:18:52;;;;;;;14.97;13.37;;;;;;;;;;5079861;28;20202;-65
2023/05/22 02:21:22;;;;;;;16.27;13.10;;;;;;;;;;5079902;28;20210;-65
2023/05/22 02:23:50;;;;;;;14.57;13.17;;;;;;;;;;5079502;28;20264;-65
2023/05/22 02:26:18;;;;;;;15.70;12.83;;;;;;;;;;5079578;28;20238;-66
2023/05/22 02:28:46;;;;;;;14.07;12.40;;;;;;;;;;5079784;28;20323;-64
2023/05/22 02:31:15;;;;;;;13.93;12.50;;;;;;;;;;5079365;28;20612;-64
2023/05/22 02:33:44;;;;;;;18.33;12.23;;;;;;;;;;5079144;28;20202;-66
2023/05/22 02:36:13;;;;;;;16.07;12.20;;;;;;;;;;5079392;28;20276;-66
2023/05/22 02:38:41;;;;;;;15.27;12.07;;;;;;;;;;5079469;28;20205;-65
2023/05/22 02:41:09;;;;;;;15.87;13.30;;;;;;;;;;5078989;28;20226;-65
2023/05/22 02:43:37;;;;;;;13.77;12.37;;;;;;;;;;5079135;28;20233;-65
2023/05/22 02:46:05;;;;;;;14.80;13.30;;;;;;;;;;5079304;28;20226;-65
2023/05/22 02:48:33;;;;;;;18.60;14.17;;;;;;;;;;5079085;28;20236;-65
2023/05/22 02:51:03;;;;;;;16.33;14.37;;;;;;;;;;5078989;28;20198;-65
2023/05/22 02:53:32;;;;;;;17.60;15.63;;;;;;;;;;5078839;28;20214;-65
2023/05/22 02:56:00;;;;;;;19.67;16.57;;;;;;;;;;5079074;28;20225;-64
2023/05/22 02:58:28;;;;;;;17.43;14.37;;;;;;;;;;5078881;28;20609;-64
2023/05/22 03:00:56;;;;;;;18.40;14.53;;;;;;;;;;5078776;28;20249;-64
2023/05/22 03:03:25;;;;;;;19.03;15.23;;;;;;;;;;5078530;28;20670;-66
2023/05/22 03:05:57;;;;;;;17.87;15.07;;;;;;;;;;5078917;28;20226;-66
2023/05/22 03:08:27;;;;;;;19.47;14.90;;;;;;;;;;5078685;28;20205;-66
2023/05/22 03:10:56;;;;;;;18.30;14.13;;;;;;;;;;5078808;28;20271;-66
2023/05/22 03:13:24;;;;;;;17.57;12.70;;;;;;;;;;5078735;28;20206;-66
2023/05/22 03:15:52;;;;;;;14.27;12.87;;;;;;;;;;5078472;28;20237;-64
2023/05/22 03:18:20;;;;;;;17.97;13.10;;;;;;;;;;5078475;28;20210;-66
2023/05/22 03:20:48;;;;;;;20.13;14.57;;;;;;;;;;5078294;28;20226;-65
2023/05/22 03:23:16;;;;;;;16.77;13.97;;;;;;;;;;5078296;28;20692;-66
2023/05/22 03:25:46;;;;;;;17.47;13.57;;;;;;;;;;5078587;28;20317;-65
2023/05/22 03:28:14;;;;;;;15.67;13.60;;;;;;;;;;5078608;28;20665;-67
2023/05/22 03:30:42;;;;;;;15.50;13.53;;;;;;;;;;5078515;28;20203;-66
2023/05/22 03:33:11;;;;;;;15.30;12.87;;;;;;;;;;5078157;28;20214;-65
2023/05/22 03:35:39;;;;;;;15.63;12.77;;;;;;;;;;5078255;28;20222;-65
2023/05/22 03:38:07;;;;;;;13.43;12.03;;;;;;;;;;5078000;28;20261;-64
2023/05/22 03:40:35;;;;;;;12.70;11.40;;;;;;;;;;5077945;28;20226;-66
2023/05/22 03:43:05;;;;;;;14.07;12.57;;;;;;;;;;5078318;28;20210;-65
2023/05/22 03:45:33;;;;;;;17.70;11.93;;;;;;;;;;5078076;28;20268;-66
2023/05/22 03:48:01;;;;;;;13.27;11.67;;;;;;;;;;5076074;28;20206;-66
2023/05/22 03:50:29;;;;;;;13.87;12.37;;;;;;;;;;5069301;28;20257;-66
2023/05/22 03:52:57;;;;;;;14.97;12.67;;;;;;;;;;5077727;28;20545;-67
2023/05/22 03:55:26;;;;;;;14.20;11.70;;;;;;;;;;5077893;28;20229;-66
2023/05/22 03:57:54;;;;;;;14.07;11.77;;;;;;;;;;5077846;28;20255;-67
2023/05/22 04:00:23;;;;;;;14.87;12.43;;;;;;;;;;5077830;28;20284;-67
2023/05/22 04:03:02;;;;;;;13.73;12.23;;;;;;;;;;5077652;28;20259;-67
2023/05/22 04:05:31;;;;;;;17.47;12.87;;;;;;;;;;5077737;28;20237;-67
2023/05/22 04:07:59;;;;;;;13.80;12.17;;;;;;;;;;5074367;28;20207;-67
2023/05/22 04:10:27;;;;;;;16.50;13.40;;;;;;;;;;5077406;28;20569;-67
2023/05/22 04:12:55;;;;;;;15.73;14.03;;;;;;;;;;5074694;28;20248;-66
2023/05/22 04:15:25;;;;;;;16.07;14.03;;;;;;;;;;5076144;28;20714;-66
2023/05/22 04:17:53;;;;;;;15.57;13.93;;;;;;;;;;5074195;28;20205;-66
2023/05/22 04:20:22;;;;;;;18.13;13.90;;;;;;;;;;5070916;28;20229;-66
2023/05/22 04:22:50;;;;;;;14.83;13.20;;;;;;;;;;5070233;28;20202;-66
2023/05/22 04:25:18;;;;;;;16.20;13.63;;;;;;;;;;5068025;28;20313;-66
2023/05/22 04:27:47;;;;;;;14.07;12.63;;;;;;;;;;5077831;28;20207;-66
2023/05/22 04:30:15;;;;;;;18.77;14.40;;;;;;;;;;5077493;28;20654;-66
2023/05/22 04:32:45;;;;;;;16.27;13.77;;;;;;;;;;5071620;28;20214;-66
2023/05/22 04:35:17;;;;;;;16.77;14.37;;;;;;;;;;5077685;28;20226;-66
2023/05/22 04:37:45;;;;;;;15.03;13.43;;;;;;;;;;5077897;28;20210;-66
2023/05/22 04:40:14;;;;;;;15.80;13.23;;;;;;;;;;5077174;28;20716;-67
2023/05/22 04:42:43;;;;;;;17.57;15.00;;;;;;;;;;5077791;28;20244;-67
2023/05/22 04:45:12;;;;;;;15.33;13.70;;;;;;;;;;5077321;28;20227;-67
2023/05/22 04:47:41;;;;;;;17.53;13.60;;;;;;;;;;5077298;28;20202;-66
2023/05/22 04:50:13;;;;;;;15.67;13.10;;;;;;;;;;5077499;28;20208;-67
2023/05/22 04:52:41;;;;;;;17.00;14.10;;;;;;;;;;5077840;28;20217;-67
2023/05/22 04:55:10;;;;;;;15.93;13.77;;;;;;;;;;5077829;28;20276;-67
2023/05/22 04:57:38;;;;;;;14.87;13.23;;;;;;;;;;5078636;28;20210;-67
2023/05/22 05:00:08;;;;;;;16.07;13.83;;;;;;;;;;5076083;28;20255;-67
2023/05/22 05:02:36;;;;;;;15.13;13.20;;;;;;;;;;5063922;28;20221;-66
2023/05/22 05:05:04;;;;;;;16.17;13.43;;;;;;;;;;5077029;28;20300;-66
2023/05/22 05:07:36;;;;;;;17.33;14.33;;;;;;;;;;5078093;28;20667;-67
2023/05/22 05:10:04;;;;;;;21.10;14.00;;;;;;;;;;5080689;28;20202;-66
2023/05/22 05:12:32;;;;;;;18.87;14.73;;;;;;;;;;5080662;28;20209;-66
2023/05/22 05:15:00;;;;;;;16.50;14.73;;;;;;;;;;5080659;28;20206;-66
2023/05/22 05:17:28;;;;;;;15.70;13.63;;;;;;;;;;5080340;28;20670;-66
2023/05/22 05:19:56;;;;;;;16.83;13.23;;;;;;;;;;5080154;28;20263;-66
2023/05/22 05:22:25;;;;;;;18.07;13.63;;;;;;;;;;5079407;28;20233;-66
2023/05/22 05:24:55;;;;;;;17.77;13.50;;;;;;;;;;5080043;28;20216;-66
2023/05/22 05:27:23;;;;;;;17.43;14.37;;;;;;;;;;5080287;28;20252;-66
2023/05/22 05:29:51;;;;;;;19.37;16.47;;;;;;;;;;5080156;28;20206;-64
2023/05/22 05:32:19;;;;;;;14.13;12.63;;;;;;;;;;5080094;28;20244;-63
2023/05/22 05:34:47;;;;;;;14.50;12.13;;;;;;;;;;5080520;28;20691;-64
2023/05/22 05:37:15;;;;;;;13.47;11.40;;;;;;;;;;5080429;28;20221;-64
2023/05/22 05:39:43;;;;;;;13.43;11.23;;;;;;;;;;5079927;28;20210;-63
2023/05/22 05:42:12;;;;;;;13.87;10.90;;;;;;;;;;5080083;28;20233;-63
2023/05/22 05:44:41;;;;;;;15.43;11.53;;;;;;;;;;5080266;28;20206;-64
2023/05/22 05:47:10;;;;;;;12.47;10.53;;;;;;;;;;5079798;28;20222;-63
2023/05/22 05:49:38;;;;;;;14.50;9.40;;;;;;;;;;5080475;28;20206;-63
2023/05/22 05:52:06;;;;;;;11.83;9.27;;;;;;;;;;5076284;28;20284;-63
2023/05/22 05:54:34;;;;;;;10.40;7.93;;;;;;;;;;5079684;28;20209;-64
2023/05/22 05:57:03;;;;;;;9.63;7.90;;;;;;;;;;5079817;28;20352;-63
2023/05/22 05:59:32;;;;;;;10.90;7.90;;;;;;;;;;5080108;28;20210;-62
2023/05/22 06:02:00;;;;;;;12.43;8.40;;;;;;;;;;5078876;28;20594;-64
2023/05/22 06:04:28;;;;;;;10.13;7.90;;;;;;;;;;5079654;28;20255;-64
2023/05/22 06:06:56;;;;;;;9.80;7.60;;;;;;;;;;5079865;28;20222;-65
2023/05/22 06:09:24;;;;;;;9.93;7.93;;;;;;;;;;5079753;28;20233;-63
2023/05/22 06:11:52;;;;;;;9.23;8.17;;;;;;;;;;5075786;28;20198;-63
2023/05/22 06:14:20;;;;;;;9.30;7.70;;;;;;;;;;5081958;28;20240;-63
2023/05/22 06:16:50;;;;;;;13.73;7.50;;;;;;;;;;5080649;28;20247;-63
2023/05/22 06:19:21;;;;;;;9.07;8.13;;;;;;;;;;5078959;28;20214;-63
2023/05/22 06:21:49;;;;;;;15.00;8.00;;;;;;;;;;5079130;28;20272;-63
2023/05/22 06:24:21;;;;;;;8.87;7.67;;;;;;;;;;5079564;28;20251;-64
2023/05/22 06:26:49;;;;;;;9.00;8.10;;;;;;;;;;5079300;28;20229;-63
2023/05/22 06:29:17;;;;;;;10.37;8.13;;;;;;;;;;5079425;28;20206;-63
2023/05/22 06:31:46;;;;;;;9.53;7.40;;;;;;;;;;5077679;28;20206;-63
2023/05/22 06:34:15;;;;;;;8.73;7.83;;;;;;;;;;5079069;28;20296;-64
2023/05/22 06:36:44;;;;;;;10.57;7.10;;;;;;;;;;5079123;28;20229;-63
2023/05/22 06:39:12;;;;;;;10.20;8.23;;;;;;;;;;5078797;28;20548;-64
2023/05/22 06:41:40;;;;;;;9.53;7.73;;;;;;;;;;5076826;28;20217;-65
2023/05/22 06:44:09;;;;;;;11.73;9.17;;;;;;;;;;5072920;28;20629;-66
2023/05/22 06:46:37;;;;;;;12.93;8.83;;;;;;;;;;5085416;28;20229;-64
2023/05/22 06:49:05;;;;;;;10.50;8.67;;;;;;;;;;5068999;28;20197;-63
2023/05/22 06:51:35;;;;;;;9.80;8.33;;;;;;;;;;5071091;28;20212;-64
2023/05/22 06:54:05;;;;;;;12.30;8.80;;;;;;;;;;5078078;28;20271;-63
2023/05/22 06:56:33;;;;;;;9.13;8.23;;;;;;;;;;5078693;28;20224;-64
2023/05/22 06:59:02;;;;;;;11.53;8.90;;;;;;;;;;5079122;28;20221;-63
2023/05/22 07:01:33;;;;;;;10.87;9.23;;;;;;;;;;5078106;28;20241;-63
2023/05/22 07:04:01;;;;;;;10.63;9.20;;;;;;;;;;5073246;28;20203;-63
2023/05/22 07:06:31;;;;;;;11.10;8.50;;;;;;;;;;5075490;28;20222;-63
2023/05/22 07:09:00;;;;;;;10.33;9.23;;;;;;;;;;5076425;28;20200;-65
2023/05/22 07:11:28;;;;;;;11.13;9.00;;;;;;;;;;5067236;28;20206;-64
2023/05/22 07:13:57;;;;;;;13.10;8.90;;;;;;;;;;5067643;28;20203;-65
2023/05/22 07:16:25;;;;;;;14.53;8.93;;;;;;;;;;5076265;28;20226;-63
2023/05/22 07:18:54;;;;;;;14.57;9.07;;;;;;;;;;5073086;28;20206;-63
2023/05/22 07:21:23;;;;;;;9.53;8.27;;;;;;;;;;5074813;28;20222;-64
2023/05/22 07:23:52;;;;;;;9.67;8.10;;;;;;;;;;5073977;28;20221;-64
2023/05/22 07:26:22;;;;;;;9.77;7.70;;;;;;;;;;5077643;28;20222;-64
2023/05/22 07:28:50;;;;;;;9.77;7.97;;;;;;;;;;5067793;28;21632;-64
2023/05/22 07:31:18;;;;;;;8.30;7.43;;;;;;;;;;5066810;28;20250;-65
2023/05/22 07:33:46;;;;;;;9.13;7.60;;;;;;;;;;5075854;28;20219;-64
2023/05/22 07:36:15;;;;;;;13.37;8.10;;;;;;;;;;5072775;28;20338;-65
2023/05/22 07:38:43;;;;;;;10.43;8.13;;;;;;;;;;5077732;28;20202;-65
2023/05/22 07:41:11;;;;;;;9.93;7.90;;;;;;;;;;5076865;28;20228;-65
2023/05/22 07:43:41;;;;;;;9.70;8.00;;;;;;;;;;5076956;28;20226;-65
2023/05/22 07:46:10;;;;;;;10.07;7.80;;;;;;;;;;5077817;28;20584;-64
2023/05/22 07:48:38;;;;;;;12.43;7.70;;;;;;;;;;5077780;28;20241;-66
2023/05/22 07:51:07;;;;;;;9.17;6.63;;;;;;;;;;5078126;28;20259;-65
2023/05/22 07:53:35;;;;;;;8.60;6.83;;;;;;;;;;5077560;28;20334;-66
2023/05/22 07:56:03;;;;;;;8.60;6.93;;;;;;;;;;5077798;28;20226;-65
2023/05/22 07:58:33;;;;;;;6.60;5.90;;;;;;;;;;5077750;28;20208;-66
2023/05/22 08:01:03;;;;;;;8.67;5.33;;;;;;;;;;5076846;28;20230;-65
2023/05/22 08:03:34;;;;;;;8.60;5.77;;;;;;;;;;5072811;28;20221;-66
2023/05/22 08:06:03;;;;;;;6.17;5.53;;;;;;;;;;5076805;28;20218;-66
2023/05/22 08:08:31;;;;;;;6.40;5.67;;;;;;;;;;5072804;28;20287;-63
2023/05/22 08:10:59;;;;;;;7.27;6.07;;;;;;;;;;5074885;28;20203;-63
2023/05/22 08:13:31;;;;;;;6.30;5.70;;;;;;;;;;5075818;28;20282;-62
2023/05/22 08:15:59;;;;;;;8.27;5.90;;;;;;;;;;5071985;28;20226;-63
2023/05/22 08:18:29;;;;;;;6.50;5.87;;;;;;;;;;5076926;28;20254;-64
2023/05/22 08:20:58;;;;;;;6.83;5.63;;;;;;;;;;5077147;28;20614;-63
2023/05/22 08:23:27;;;;;;;6.93;6.27;;;;;;;;;;5076869;28;20228;-63
2023/05/22 08:25:55;;;;;;;6.70;6.00;;;;;;;;;;5077315;28;20225;-62
2023/05/22 08:28:23;;;;;;;5.90;5.30;;;;;;;;;;5077571;28;20209;-63
2023/05/22 08:30:51;;;;;;;7.13;6.27;;;;;;;;;;5077338;28;20206;-63
2023/05/22 08:33:19;;;;;;;7.37;6.23;;;;;;;;;;5063655;28;20671;-63
2023/05/22 08:35:48;;;;;;;9.87;6.97;;;;;;;;;;5077110;28;20234;-63
2023/05/22 08:38:16;;;;;;;6.77;6.07;;;;;;;;;;5077622;28;20210;-63
2023/05/22 08:40:47;;;;;;;7.50;6.53;;;;;;;;;;5077507;28;20207;-63
2023/05/22 08:43:15;;;;;;;7.30;6.60;;;;;;;;;;5079927;28;20786;-63
2023/05/22 08:45:44;;;;;;;7.10;6.40;;;;;;;;;;5079306;28;20241;-65
2023/05/22 08:48:13;;;;;;;8.87;6.07;;;;;;;;;;5078619;28;20199;-65
2023/05/22 08:50:41;;;;;;;8.20;6.43;;;;;;;;;;5081032;28;20200;-65
2023/05/22 08:53:13;;;;;;;7.23;6.50;;;;;;;;;;5080798;28;20205;-65
2023/05/22 08:55:42;;;;;;;7.93;6.63;;;;;;;;;;5080645;28;20220;-65
2023/05/22 08:58:11;;;;;;;7.63;6.93;;;;;;;;;;5080880;28;20272;-65
2023/05/22 09:00:42;;;;;;;7.33;6.47;;;;;;;;;;5078944;28;20237;-65
2023/05/22 09:03:12;;;;;;;6.97;6.27;;;;;;;;;;5075443;28;20223;-65
2023/05/22 09:05:40;;;;;;;8.53;6.63;;;;;;;;;;5080143;28;20745;-65
2023/05/22 09:08:08;;;;;;;10.20;7.40;;;;;;;;;;5077900;28;20214;-65
2023/05/22 09:10:48;;;;;;;7.63;6.93;;;;;;;;;;5081038;28;20203;-65
2023/05/22 09:13:27;;;;;;;7.87;6.70;;;;;;;;;;5080594;28;20200;-64
2023/05/22 09:15:58;;;;;;;8.93;7.10;;;;;;;;;;5080293;28;20286;-65
2023/05/22 09:18:27;;;;;;;8.77;6.93;;;;;;;;;;5080464;28;20206;-65
2023/05/22 09:20:57;;;;;;;10.40;6.50;;;;;;;;;;5072771;28;20211;-65
2023/05/22 09:23:27;;;;;;;7.67;6.93;;;;;;;;;;5071419;28;20694;-65
2023/05/22 09:25:57;;;;;;;7.90;7.10;;;;;;;;;;5080095;28;20222;-64
2023/05/22 09:28:25;;;;;;;7.80;7.00;;;;;;;;;;5080095;28;20631;-64
2023/05/22 09:30:54;;;;;;;8.90;6.83;;;;;;;;;;5079678;28;20554;-65
2023/05/22 09:33:22;;;;;;;8.60;6.03;;;;;;;;;;5079530;28;20247;-65
2023/05/22 09:35:52;;;;;;;8.40;6.33;;;;;;;;;;5079927;28;20224;-65
2023/05/22 09:38:21;;;;;;;9.33;7.07;;;;;;;;;;5077496;28;20279;-62
2023/05/22 09:40:52;;;;;;;8.50;6.70;;;;;;;;;;5078346;28;20271;-64
2023/05/22 09:43:24;;;;;;;7.90;6.83;;;;;;;;;;5077693;28;20222;-65
2023/05/22 09:45:56;;;;;;;7.07;6.37;;;;;;;;;;5080236;28;20568;-66
2023/05/22 09:48:24;;;;;;;13.23;8.30;;;;;;;;;;5080160;28;20210;-65
2023/05/22 09:50:53;;;;;;;7.23;6.50;;;;;;;;;;5080073;28;20205;-65
2023/05/22 09:53:25;;;;;;;7.67;6.80;;;;;;;;;;5079242;28;20256;-64
2023/05/22 09:55:54;;;;;;;8.63;6.27;;;;;;;;;;5079067;28;20224;-66
2023/05/22 09:58:24;;;;;;;7.87;6.30;;;;;;;;;;5079835;28;20257;-66
2023/05/22 10:00:53;;;;;;;7.17;6.00;;;;;;;;;;5067754;28;20289;-65
2023/05/22 10:03:23;;;;;;;8.03;6.30;;;;;;;;;;5079593;28;20229;-65
2023/05/22 10:05:52;;;;;;;6.73;5.63;;;;;;;;;;5079382;28;20659;-66
2023/05/22 10:08:21;;;;;;;5.77;5.13;;;;;;;;;;5079295;28;20207;-65
2023/05/22 10:10:51;;;;;;;6.23;5.63;;;;;;;;;;5079573;28;20206;-65
2023/05/22 10:13:20;;;;;;;6.37;5.73;;;;;;;;;;5079971;28;20210;-66
2023/05/22 10:15:50;;;;;;;7.73;6.70;;;;;;;;;;5078874;28;20720;-67
2023/05/22 10:18:18;;;;;;;7.43;6.63;;;;;;;;;;5077512;28;20285;-65
2023/05/22 10:20:47;;;;;;;7.33;6.23;;;;;;;;;;5078961;28;20199;-65
2023/05/22 10:23:15;;;;;;;9.37;6.83;;;;;;;;;;5080445;28;20204;-65
2023/05/22 10:25:44;;;;;;;7.03;6.10;;;;;;;;;;5079516;28;20737;-65
2023/05/22 10:28:14;;;;;;;6.63;5.77;;;;;;;;;;5079048;28;20209;-65
2023/05/22 10:30:47;;;;;;;5.77;5.00;;;;;;;;;;5079229;28;20207;-65
2023/05/22 10:33:18;;;;;;;5.17;4.73;;;;;;;;;;5079098;28;20209;-65
2023/05/22 10:35:50;;;;;;;5.60;5.03;;;;;;;;;;5078900;28;20633;-65
2023/05/22 10:38:36;;;;;;;6.70;5.80;;;;;;;;;;5078263;28;20212;-66
2023/05/22 10:41:04;;;;;;;6.20;5.20;;;;;;;;;;5076321;28;20204;-66
2023/05/22 10:43:32;;;;;;;6.13;5.27;;;;;;;;;;5078794;28;20208;-65
2023/05/22 10:46:03;;;;;;;6.40;5.23;;;;;;;;;;5078835;28;20725;-66
2023/05/22 10:48:38;;;;;;;6.40;5.50;;;;;;;;;;5078448;28;20211;-66
2023/05/22 10:51:06;;;;;;;7.07;5.13;;;;;;;;;;5078973;28;20212;-66
2023/05/22 10:53:35;;;;;;;5.37;4.43;;;;;;;;;;5079188;28;20234;-66
2023/05/22 10:56:10;;;;;;;5.20;4.50;;;;;;;;;;5078726;28;20238;-66
2023/05/22 10:58:38;;;;;;;5.30;4.80;;;;;;;;;;5079062;28;20210;-66
2023/05/22 11:01:11;;;;;;;5.73;4.90;;;;;;;;;;5078716;28;20248;-65
2023/05/22 11:03:54;;;;;;;7.03;4.97;;;;;;;;;;5078642;28;20348;-65
2023/05/22 11:06:35;;;;;;;7.17;4.67;;;;;;;;;;5078521;28;20229;-66
2023/05/22 11:09:20;;;;;;;6.93;5.10;;;;;;;;;;5078917;28;20215;-66
2023/05/22 11:12:12;;;;;;;5.13;4.63;;;;;;;;;;5078584;28;20725;-66
2023/05/22 11:14:40;;;;;;;8.20;5.10;;;;;;;;;;5078524;28;20209;-65
2023/05/22 11:17:08;;;;;;;6.00;4.67;;;;;;;;;;5078314;28;20232;-66
2023/05/22 11:19:39;;;;;;;5.80;4.97;;;;;;;;;;5078827;28;20204;-65
2023/05/22 11:22:07;;;;;;;6.07;4.77;;;;;;;;;;5078374;28;20209;-65
2023/05/22 11:24:37;;;;;;;6.13;5.17;;;;;;;;;;5077883;28;20231;-65
2023/05/22 11:27:06;;;;;;;7.03;4.83;;;;;;;;;;5073574;28;20234;-65
2023/05/22 11:29:34;;;;;;;5.43;4.93;;;;;;;;;;5069079;28;20210;-65
2023/05/22 11:32:02;;;;;;;5.53;4.77;;;;;;;;;;5075843;28;20571;-65
2023/05/22 11:34:30;;;;;;;4.80;4.40;;;;;;;;;;5077342;28;20213;-65
2023/05/22 11:37:00;;;;;;;4.90;4.40;;;;;;;;;;5077947;28;20226;-65
2023/05/22 11:39:28;;;;;;;5.70;5.07;;;;;;;;;;5077368;28;20212;-65
2023/05/22 11:41:56;;;;;;;5.37;4.60;;;;;;;;;;5077885;28;20232;-65
2023/05/22 11:44:26;;;;;;;5.70;5.10;;;;;;;;;;5077694;28;20223;-65
2023/05/22 11:46:54;;;;;;;5.80;5.30;;;;;;;;;;5077339;28;20224;-65
2023/05/22 11:49:22;;;;;;;5.77;5.03;;;;;;;;;;5077416;28;20264;-65
2023/05/22 11:51:51;;;;;;;5.87;4.77;;;;;;;;;;5077625;28;20292;-65
2023/05/22 11:54:21;;;;;;;5.60;5.10;;;;;;;;;;5077218;28;20238;-65
2023/05/22 11:56:49;;;;;;;6.40;4.50;;;;;;;;;;5077715;28;20239;-65
2023/05/22 11:59:17;;;;;;;5.50;5.00;;;;;;;;;;5077844;28;20265;-66
2023/05/22 12:01:45;;;;;;;7.07;5.33;;;;;;;;;;5077129;28;20703;-66
2023/05/22 12:04:14;;;;;;;6.73;5.43;;;;;;;;;;5077742;28;20213;-66
2023/05/22 12:06:42;;;;;;;9.27;5.47;;;;;;;;;;5077577;28;20698;-65
2023/05/22 12:09:11;;;;;;;6.37;5.47;;;;;;;;;;5077605;28;20216;-66
2023/05/22 12:11:45;;;;;;;7.83;5.23;;;;;;;;;;5077508;28;20211;-65
2023/05/22 12:14:13;;;;;;;5.67;5.10;;;;;;;;;;5077827;28;20257;-65
2023/05/22 12:16:43;;;;;;;6.50;5.60;;;;;;;;;;5076630;28;20234;-65
2023/05/22 12:19:11;;;;;;;8.70;5.53;;;;;;;;;;5077514;28;20231;-65
2023/05/22 12:21:40;;;;;;;5.73;5.23;;;;;;;;;;5077597;28;20673;-65
2023/05/22 12:24:08;;;;;;;6.97;6.00;;;;;;;;;;5073135;28;20211;-65
2023/05/22 12:26:37;;;;;;;8.33;5.83;;;;;;;;;;5077504;28;20246;-65
2023/05/22 12:29:06;;;;;;;6.60;6.00;;;;;;;;;;5077362;28;20202;-65
2023/05/22 12:31:37;;;;;;;6.50;5.90;;;;;;;;;;5077212;28;20216;-65
2023/05/22 12:34:06;;;;;;;7.53;6.27;;;;;;;;;;5077516;28;20205;-66
2023/05/22 12:36:35;;;;;;;6.50;5.90;;;;;;;;;;5077398;28;20227;-65
2023/05/22 12:39:07;;;;;;;7.87;5.80;;;;;;;;;;5077305;28;20222;-66
2023/05/22 12:41:35;;;;;;;6.93;5.47;;;;;;;;;;5076970;28;20697;-65
2023/05/22 12:44:03;;;;;;;8.17;6.17;;;;;;;;;;5077465;28;20213;-66
2023/05/22 12:46:33;;;;;;;7.07;6.37;;;;;;;;;;5076636;28;20244;-66
2023/05/22 12:49:01;;;;;;;7.50;6.00;;;;;;;;;;5077178;28;20205;-65
2023/05/22 12:51:30;;;;;;;8.23;6.63;;;;;;;;;;5076958;28;20263;-66
2023/05/22 12:53:59;;;;;;;6.30;5.70;;;;;;;;;;5076940;28;20208;-65
2023/05/22 12:56:27;;;;;;;8.70;6.10;;;;;;;;;;5077222;28;20226;-66
2023/05/22 12:58:56;;;;;;;6.00;5.47;;;;;;;;;;5077036;28;20208;-66
2023/05/22 13:01:24;;;;;;;7.30;5.40;;;;;;;;;;5076437;28;20309;-66
2023/05/22 13:03:53;;;;;;;8.13;6.07;;;;;;;;;;5076913;28;20638;-66
2023/05/22 13:06:21;;;;;;;6.07;5.47;;;;;;;;;;5076816;28;20591;-66
2023/05/22 13:08:50;;;;;;;6.27;5.63;;;;;;;;;;5077215;28;20216;-66
2023/05/22 13:11:22;;;;;;;6.00;5.40;;;;;;;;;;5076865;28;20210;-66
2023/05/22 13:13:50;;;;;;;6.53;5.30;;;;;;;;;;5084446;28;20200;-66
2023/05/22 13:16:18;;;;;;;5.67;5.10;;;;;;;;;;5076844;28;20222;-66
2023/05/22 13:18:46;;;;;;;8.03;5.40;;;;;;;;;;5087733;28;20208;-66
2023/05/22 13:21:16;;;;;;;6.03;5.37;;;;;;;;;;5076933;28;20217;-66
2023/05/22 13:23:44;;;;;;;5.73;4.87;;;;;;;;;;5072557;28;20265;-66
2023/05/22 13:26:12;;;;;;;5.73;4.77;;;;;;;;;;5076861;28;20227;-66
2023/05/22 13:28:40;;;;;;;5.40;4.90;;;;;;;;;;5078144;28;20259;-66
2023/05/22 13:31:08;;;;;;;6.03;5.03;;;;;;;;;;5084267;28;20208;-66
2023/05/22 13:33:36;;;;;;;6.20;5.17;;;;;;;;;;5080087;28;20275;-66
2023/05/22 13:36:05;;;;;;;5.20;4.47;;;;;;;;;;5080238;28;20295;-66
2023/05/22 13:38:34;;;;;;;6.37;4.67;;;;;;;;;;5080156;28;20206;-66
2023/05/22 13:41:02;;;;;;;4.67;4.27;;;;;;;;;;5080440;28;20209;-66
2023/05/22 13:43:30;;;;;;;5.70;4.27;;;;;;;;;;5079937;28;20746;-66
2023/05/22 13:45:58;;;;;;;6.07;4.33;;;;;;;;;;5080187;28;20242;-66
2023/05/22 13:48:26;;;;;;;6.73;4.60;;;;;;;;;;5079862;28;20206;-66
2023/05/22 13:50:54;;;;;;;5.20;4.73;;;;;;;;;;5080073;28;20205;-66
2023/05/22 13:53:22;;;;;;;8.87;4.73;;;;;;;;;;5079875;28;20210;-64
2023/05/22 13:55:53;;;;;;;5.57;4.77;;;;;;;;;;5079676;28;20311;-65
2023/05/22 13:58:21;;;;;;;5.73;4.80;;;;;;;;;;5079708;28;20556;-65
2023/05/22 14:00:50;;;;;;;7.70;4.90;;;;;;;;;;5079655;28;20294;-65
2023/05/22 14:03:18;;;;;;;7.27;4.50;;;;;;;;;;5078940;28;20291;-65
2023/05/22 14:05:46;;;;;;;5.83;4.70;;;;;;;;;;5079430;28;20257;-66
2023/05/22 14:08:14;;;;;;;5.43;4.93;;;;;;;;;;5079703;28;20206;-66
2023/05/22 14:10:42;;;;;;;5.30;4.60;;;;;;;;;;5079385;28;20208;-64
2023/05/22 14:13:11;;;;;;;5.63;4.63;;;;;;;;;;5079638;28;20578;-66
2023/05/22 14:15:41;;;;;;;4.90;4.27;;;;;;;;;;5079528;28;20312;-64
2023/05/22 14:18:10;;;;;;;7.57;4.47;;;;;;;;;;5079420;28;20267;-65
2023/05/22 14:20:38;;;;;;;5.87;5.03;;;;;;;;;;5078184;28;20235;-65
2023/05/22 14:23:06;;;;;;;5.03;4.53;;;;;;;;;;5077151;28;20208;-65
2023/05/22 14:25:34;;;;;;;5.97;5.47;;;;;;;;;;5076377;28;20282;-65
2023/05/22 14:28:02;;;;;;;6.57;5.97;;;;;;;;;;5079384;28;20211;-64
2023/05/22 14:30:31;;;;;;;4.97;4.37;;;;;;;;;;5078334;28;20296;-63
2023/05/22 14:32:59;;;;;;;6.57;4.77;;;;;;;;;;5078872;28;20226;-65
2023/05/22 14:35:27;;;;;;;5.03;4.53;;;;;;;;;;5078369;28;20693;-64
2023/05/22 14:37:55;;;;;;;5.37;4.83;;;;;;;;;;5078939;28;20203;-66
2023/05/22 14:40:23;;;;;;;6.00;5.40;;;;;;;;;;5078198;28;20793;-64
2023/05/22 14:42:51;;;;;;;6.77;5.23;;;;;;;;;;5079061;28;20261;-65
2023/05/22 14:45:21;;;;;;;7.13;5.47;;;;;;;;;;5078311;28;20218;-64